<?xml version="1.0" encoding="utf-8"?>
<gpx xmlns:xsi="http://www.w3.org/2001/XMLSchema-instance" xmlns:xsd="http://www.w3.org/2001/XMLSchema" version="1.1" creator="Shapelink.com" xmlns="http://www.topografix.com/GPX/1/1" xmlns:gpxtpx="http://www.garmin.com/xmlschemas/TrackPointExtension/v1">
  <metadata>
    <name>Övrigt 3.69 km, 2019-04-09</name>
    <desc></desc>
    <author><name>Marian Moron</name></author> 
    <time>2019-04-09T20:49:14Z</time>
  </metadata>
  <trk>
    <name>Övrigt 3.69 km, 2019-04-09</name>
    <trkseg>
      <trkpt lat="51.229826459892" lon="4.457910329878">
        <ele>3</ele>
        <time>2019-04-09T20:49:14Z</time>
      </trkpt>
      <trkpt lat="51.229831824308" lon="4.45786238541">
        <ele>4.6</ele>
        <time>2019-04-09T20:49:16Z</time>
      </trkpt>
      <trkpt lat="51.229930982185" lon="4.458294304717">
        <ele>6.6</ele>
        <time>2019-04-09T20:49:43Z</time>
      </trkpt>
      <trkpt lat="51.229969371287" lon="4.458505025683">
        <ele>8.2</ele>
        <time>2019-04-09T20:50:02Z</time>
      </trkpt>
      <trkpt lat="51.230019914144" lon="4.458620360627">
        <ele>8.4</ele>
        <time>2019-04-09T20:50:15Z</time>
      </trkpt>
      <trkpt lat="51.230046317129" lon="4.458883384649">
        <ele>7.8</ele>
        <time>2019-04-09T20:50:35Z</time>
      </trkpt>
      <trkpt lat="51.230134662355" lon="4.459018836153">
        <ele>7.6</ele>
        <time>2019-04-09T20:50:44Z</time>
      </trkpt>
      <trkpt lat="51.230359800189" lon="4.459050268278">
        <ele>2.6</ele>
        <time>2019-04-09T20:51:03Z</time>
      </trkpt>
      <trkpt lat="51.230383688604" lon="4.459248416394">
        <ele>2.8</ele>
        <time>2019-04-09T20:51:20Z</time>
      </trkpt>
      <trkpt lat="51.230444625017" lon="4.459305916228">
        <ele>2.4</ele>
        <time>2019-04-09T20:51:41Z</time>
      </trkpt>
      <trkpt lat="51.230522911963" lon="4.459397446576">
        <ele>2.2</ele>
        <time>2019-04-09T20:51:49Z</time>
      </trkpt>
      <trkpt lat="51.230691974886" lon="4.459747809996">
        <ele>2</ele>
        <time>2019-04-09T20:52:09Z</time>
      </trkpt>
      <trkpt lat="51.230705385926" lon="4.459776727551">
        <ele>2.2</ele>
        <time>2019-04-09T20:52:11Z</time>
      </trkpt>
      <trkpt lat="51.230722736459" lon="4.459793407532">
        <ele>2.2</ele>
        <time>2019-04-09T20:52:13Z</time>
      </trkpt>
      <trkpt lat="51.230748552711" lon="4.45978770784">
        <ele>2.4</ele>
        <time>2019-04-09T20:52:15Z</time>
      </trkpt>
      <trkpt lat="51.230815188816" lon="4.459720233545">
        <ele>2.4</ele>
        <time>2019-04-09T20:52:27Z</time>
      </trkpt>
      <trkpt lat="51.231030687465" lon="4.459666421747">
        <ele>4.4</ele>
        <time>2019-04-09T20:52:44Z</time>
      </trkpt>
      <trkpt lat="51.231343667611" lon="4.459645131721">
        <ele>5.8</ele>
        <time>2019-04-09T20:53:08Z</time>
      </trkpt>
      <trkpt lat="51.23167902743" lon="4.459621830039">
        <ele>0</ele>
        <time>2019-04-09T20:53:44Z</time>
      </trkpt>
      <trkpt lat="51.231811042355" lon="4.459666505566">
        <ele>0</ele>
        <time>2019-04-09T20:53:59Z</time>
      </trkpt>
      <trkpt lat="51.231831745648" lon="4.459726100875">
        <ele>0</ele>
        <time>2019-04-09T20:54:04Z</time>
      </trkpt>
      <trkpt lat="51.231888994025" lon="4.459944952284">
        <ele>4.4</ele>
        <time>2019-04-09T20:54:39Z</time>
      </trkpt>
      <trkpt lat="51.231942638185" lon="4.460196074008">
        <ele>4.4</ele>
        <time>2019-04-09T20:54:51Z</time>
      </trkpt>
      <trkpt lat="51.231961916555" lon="4.460323646526">
        <ele>4.8</ele>
        <time>2019-04-09T20:55:02Z</time>
      </trkpt>
      <trkpt lat="51.232041209329" lon="4.460517519873">
        <ele>6.4</ele>
        <time>2019-04-09T20:55:17Z</time>
      </trkpt>
      <trkpt lat="51.232193508452" lon="4.460392713382">
        <ele>5.6</ele>
        <time>2019-04-09T20:55:37Z</time>
      </trkpt>
      <trkpt lat="51.23222720369" lon="4.460349546597">
        <ele>6.8</ele>
        <time>2019-04-09T20:55:41Z</time>
      </trkpt>
      <trkpt lat="51.232425435625" lon="4.46025038872">
        <ele>7.8</ele>
        <time>2019-04-09T20:55:57Z</time>
      </trkpt>
      <trkpt lat="51.232640934274" lon="4.460156176164">
        <ele>8.8</ele>
        <time>2019-04-09T20:56:22Z</time>
      </trkpt>
      <trkpt lat="51.232696338633" lon="4.460130862826">
        <ele>9.2</ele>
        <time>2019-04-09T20:56:26Z</time>
      </trkpt>
      <trkpt lat="51.232775631407" lon="4.460102112909">
        <ele>8.6</ele>
        <time>2019-04-09T20:56:34Z</time>
      </trkpt>
      <trkpt lat="51.232865485375" lon="4.460074536458">
        <ele>8.8</ele>
        <time>2019-04-09T20:56:40Z</time>
      </trkpt>
      <trkpt lat="51.232899851165" lon="4.460060371047">
        <ele>7</ele>
        <time>2019-04-09T20:56:45Z</time>
      </trkpt>
      <trkpt lat="51.232941425389" lon="4.460090629706">
        <ele>6.2</ele>
        <time>2019-04-09T20:56:49Z</time>
      </trkpt>
      <trkpt lat="51.232958273008" lon="4.460162462589">
        <ele>4.8</ele>
        <time>2019-04-09T20:56:53Z</time>
      </trkpt>
      <trkpt lat="51.232940335742" lon="4.46017830438">
        <ele>4.4</ele>
        <time>2019-04-09T20:56:56Z</time>
      </trkpt>
      <trkpt lat="51.233006468933" lon="4.460032207863">
        <ele>3.4</ele>
        <time>2019-04-09T20:57:04Z</time>
      </trkpt>
      <trkpt lat="51.23308215749" lon="4.459982587015">
        <ele>1.6</ele>
        <time>2019-04-09T20:57:12Z</time>
      </trkpt>
      <trkpt lat="51.23321626789" lon="4.460026927266">
        <ele>2.6</ele>
        <time>2019-04-09T20:57:21Z</time>
      </trkpt>
      <trkpt lat="51.23322967893" lon="4.460055341907">
        <ele>2.8</ele>
        <time>2019-04-09T20:57:23Z</time>
      </trkpt>
      <trkpt lat="51.233259267037" lon="4.460581976684">
        <ele>38</ele>
        <time>2019-04-09T20:57:51Z</time>
      </trkpt>
      <trkpt lat="51.233211657845" lon="4.460873499166">
        <ele>64.2</ele>
        <time>2019-04-09T20:58:03Z</time>
      </trkpt>
      <trkpt lat="51.233243844341" lon="4.461211205917">
        <ele>77.8</ele>
        <time>2019-04-09T20:58:43Z</time>
      </trkpt>
      <trkpt lat="51.233312911197" lon="4.461546146641">
        <ele>72.4</ele>
        <time>2019-04-09T20:59:11Z</time>
      </trkpt>
      <trkpt lat="51.233488428183" lon="4.462055179428">
        <ele>40.2</ele>
        <time>2019-04-09T20:59:42Z</time>
      </trkpt>
      <trkpt lat="51.233497983549" lon="4.462068758106">
        <ele>33.4</ele>
        <time>2019-04-09T20:59:44Z</time>
      </trkpt>
      <trkpt lat="51.233525308543" lon="4.462110919063">
        <ele>18</ele>
        <time>2019-04-09T20:59:51Z</time>
      </trkpt>
      <trkpt lat="51.233557075944" lon="4.462209909302">
        <ele>10.6</ele>
        <time>2019-04-09T21:00:04Z</time>
      </trkpt>
      <trkpt lat="51.233673165259" lon="4.462910971418">
        <ele>0</ele>
        <time>2019-04-09T21:00:38Z</time>
      </trkpt>
      <trkpt lat="51.233729491627" lon="4.463240966821">
        <ele>0</ele>
        <time>2019-04-09T21:00:55Z</time>
      </trkpt>
      <trkpt lat="51.23375606225" lon="4.463361414724">
        <ele>0</ele>
        <time>2019-04-09T21:01:03Z</time>
      </trkpt>
      <trkpt lat="51.233816998663" lon="4.463717310198">
        <ele>0</ele>
        <time>2019-04-09T21:01:24Z</time>
      </trkpt>
      <trkpt lat="51.233868798805" lon="4.46413120842">
        <ele>3.8</ele>
        <time>2019-04-09T21:01:49Z</time>
      </trkpt>
      <trkpt lat="51.23387173247" lon="4.464535886552">
        <ele>19.2</ele>
        <time>2019-04-09T21:02:15Z</time>
      </trkpt>
      <trkpt lat="51.233999556445" lon="4.46523259008">
        <ele>23.2</ele>
        <time>2019-04-09T21:02:50Z</time>
      </trkpt>
      <trkpt lat="51.234015984969" lon="4.465351193965">
        <ele>17.4</ele>
        <time>2019-04-09T21:02:56Z</time>
      </trkpt>
      <trkpt lat="51.234068623301" lon="4.465584881337">
        <ele>8.2</ele>
        <time>2019-04-09T21:03:29Z</time>
      </trkpt>
      <trkpt lat="51.234080525599" lon="4.465629305407">
        <ele>8</ele>
        <time>2019-04-09T21:03:32Z</time>
      </trkpt>
      <trkpt lat="51.23408295635" lon="4.465705915973">
        <ele>6.8</ele>
        <time>2019-04-09T21:03:48Z</time>
      </trkpt>
      <trkpt lat="51.234115142846" lon="4.465931221445">
        <ele>8.4</ele>
        <time>2019-04-09T21:04:04Z</time>
      </trkpt>
      <trkpt lat="51.234132241922" lon="4.466121406756">
        <ele>12.2</ele>
        <time>2019-04-09T21:04:16Z</time>
      </trkpt>
      <trkpt lat="51.234197201647" lon="4.466752731464">
        <ele>17.8</ele>
        <time>2019-04-09T21:05:05Z</time>
      </trkpt>
      <trkpt lat="51.234229471962" lon="4.466890613719">
        <ele>16.4</ele>
        <time>2019-04-09T21:05:12Z</time>
      </trkpt>
      <trkpt lat="51.234344806906" lon="4.467593016939">
        <ele>12</ele>
        <time>2019-04-09T21:05:46Z</time>
      </trkpt>
      <trkpt lat="51.234503140997" lon="4.468274800685">
        <ele>8.8</ele>
        <time>2019-04-09T21:06:21Z</time>
      </trkpt>
      <trkpt lat="51.23453557895" lon="4.468540004001">
        <ele>8.2</ele>
        <time>2019-04-09T21:06:37Z</time>
      </trkpt>
      <trkpt lat="51.234544296126" lon="4.468608400305">
        <ele>9.2</ele>
        <time>2019-04-09T21:06:41Z</time>
      </trkpt>
      <trkpt lat="51.234630126782" lon="4.469319353063">
        <ele>13.4</ele>
        <time>2019-04-09T21:07:18Z</time>
      </trkpt>
      <trkpt lat="51.23463364718" lon="4.469337122691">
        <ele>13.4</ele>
        <time>2019-04-09T21:07:19Z</time>
      </trkpt>
      <trkpt lat="51.234806817234" lon="4.470012620012">
        <ele>5.6</ele>
        <time>2019-04-09T21:07:54Z</time>
      </trkpt>
      <trkpt lat="51.234837159712" lon="4.470196099803">
        <ele>8.2</ele>
        <time>2019-04-09T21:08:04Z</time>
      </trkpt>
      <trkpt lat="51.234827017613" lon="4.470261478623">
        <ele>9</ele>
        <time>2019-04-09T21:08:08Z</time>
      </trkpt>
      <trkpt lat="51.234929695888" lon="4.470966144956">
        <ele>3.2</ele>
        <time>2019-04-09T21:08:41Z</time>
      </trkpt>
      <trkpt lat="51.235004294798" lon="4.471682545949">
        <ele>0</ele>
        <time>2019-04-09T21:09:05Z</time>
      </trkpt>
      <trkpt lat="51.235126586719" lon="4.472415626923">
        <ele>0</ele>
        <time>2019-04-09T21:09:23Z</time>
      </trkpt>
      <trkpt lat="51.235306462293" lon="4.473101182524">
        <ele>0</ele>
        <time>2019-04-09T21:09:40Z</time>
      </trkpt>
      <trkpt lat="51.235440153598" lon="4.473804423934">
        <ele>3</ele>
        <time>2019-04-09T21:09:58Z</time>
      </trkpt>
      <trkpt lat="51.235595218748" lon="4.474485034214">
        <ele>2.4</ele>
        <time>2019-04-09T21:10:15Z</time>
      </trkpt>
      <trkpt lat="51.235694041349" lon="4.475087273729">
        <ele>5.6</ele>
        <time>2019-04-09T21:11:02Z</time>
      </trkpt>
      <trkpt lat="51.23582136241" lon="4.475675766928">
        <ele>7</ele>
        <time>2019-04-09T21:11:31Z</time>
      </trkpt>
      <trkpt lat="51.235865954118" lon="4.475786072732">
        <ele>5.4</ele>
        <time>2019-04-09T21:11:38Z</time>
      </trkpt>
      <trkpt lat="51.235631680013" lon="4.475978018242">
        <ele>2</ele>
        <time>2019-04-09T21:11:56Z</time>
      </trkpt>
      <trkpt lat="51.235474687026" lon="4.475287349682">
        <ele>0</ele>
        <time>2019-04-09T21:12:16Z</time>
      </trkpt>
      <trkpt lat="51.235265474802" lon="4.474628029428">
        <ele>0</ele>
        <time>2019-04-09T21:12:35Z</time>
      </trkpt>
      <trkpt lat="51.235085934504" lon="4.474040877333">
        <ele>0</ele>
        <time>2019-04-09T21:13:11Z</time>
      </trkpt>
      <trkpt lat="51.234925840214" lon="4.473911879892">
        <ele>0</ele>
        <time>2019-04-09T21:13:28Z</time>
      </trkpt>
      <trkpt lat="51.234646471487" lon="4.473335875724">
        <ele>0</ele>
        <time>2019-04-09T21:14:11Z</time>
      </trkpt>
      <trkpt lat="51.234634233913" lon="4.473298827726">
        <ele>0</ele>
        <time>2019-04-09T21:14:14Z</time>
      </trkpt>
      <trkpt lat="51.2343302224" lon="4.472757524624">
        <ele>0</ele>
        <time>2019-04-09T21:14:49Z</time>
      </trkpt>
      <trkpt lat="51.234072814251" lon="4.472164672837">
        <ele>0</ele>
        <time>2019-04-09T21:15:27Z</time>
      </trkpt>
      <trkpt lat="51.233842312001" lon="4.471524379496">
        <ele>0</ele>
        <time>2019-04-09T21:16:07Z</time>
      </trkpt>
      <trkpt lat="51.233825715839" lon="4.471460425599">
        <ele>0</ele>
        <time>2019-04-09T21:16:14Z</time>
      </trkpt>
      <trkpt lat="51.23374851854" lon="4.4712994093">
        <ele>0</ele>
        <time>2019-04-09T21:16:24Z</time>
      </trkpt>
      <trkpt lat="51.23372002008" lon="4.471235455403">
        <ele>0</ele>
        <time>2019-04-09T21:16:34Z</time>
      </trkpt>
      <trkpt lat="51.233557075944" lon="4.470902442516">
        <ele>0</ele>
        <time>2019-04-09T21:16:59Z</time>
      </trkpt>
      <trkpt lat="51.233474681867" lon="4.470680405985">
        <ele>0</ele>
        <time>2019-04-09T21:17:14Z</time>
      </trkpt>
      <trkpt lat="51.233304864573" lon="4.470356529369">
        <ele>0</ele>
        <time>2019-04-09T21:17:41Z</time>
      </trkpt>
      <trkpt lat="51.233049803356" lon="4.46983760594">
        <ele>0</ele>
        <time>2019-04-09T21:18:16Z</time>
      </trkpt>
      <trkpt lat="51.232764567299" lon="4.469290603146">
        <ele>0</ele>
        <time>2019-04-09T21:18:51Z</time>
      </trkpt>
      <trkpt lat="51.232573208522" lon="4.46863564148">
        <ele>0</ele>
        <time>2019-04-09T21:19:32Z</time>
      </trkpt>
      <trkpt lat="51.232519815819" lon="4.468570011203">
        <ele>0</ele>
        <time>2019-04-09T21:19:41Z</time>
      </trkpt>
      <trkpt lat="51.232406827807" lon="4.468360379884">
        <ele>0</ele>
        <time>2019-04-09T21:19:58Z</time>
      </trkpt>
      <trkpt lat="51.23214087012" lon="4.467833577469">
        <ele>0</ele>
        <time>2019-04-09T21:20:29Z</time>
      </trkpt>
      <trkpt lat="51.232036683103" lon="4.467613301137">
        <ele>0</ele>
        <time>2019-04-09T21:20:45Z</time>
      </trkpt>
      <trkpt lat="51.231914223544" lon="4.467560411348">
        <ele>0</ele>
        <time>2019-04-09T21:20:57Z</time>
      </trkpt>
      <trkpt lat="51.231801989903" lon="4.467485980076">
        <ele>0</ele>
        <time>2019-04-09T21:21:05Z</time>
      </trkpt>
      <trkpt lat="51.231782460076" lon="4.467433341744">
        <ele>0</ele>
        <time>2019-04-09T21:21:08Z</time>
      </trkpt>
      <trkpt lat="51.231431593742" lon="4.467345080337">
        <ele>0</ele>
        <time>2019-04-09T21:21:40Z</time>
      </trkpt>
      <trkpt lat="51.231361521058" lon="4.46735069621">
        <ele>0</ele>
        <time>2019-04-09T21:21:45Z</time>
      </trkpt>
      <trkpt lat="51.231083493435" lon="4.467454799408">
        <ele>0</ele>
        <time>2019-04-09T21:22:11Z</time>
      </trkpt>
      <trkpt lat="51.230893559581" lon="4.46744792625">
        <ele>0</ele>
        <time>2019-04-09T21:22:27Z</time>
      </trkpt>
      <trkpt lat="51.230804879079" lon="4.467469383914">
        <ele>0</ele>
        <time>2019-04-09T21:22:34Z</time>
      </trkpt>
      <trkpt lat="51.230706978487" lon="4.466808219642">
        <ele>0</ele>
        <time>2019-04-09T21:23:10Z</time>
      </trkpt>
      <trkpt lat="51.230658782562" lon="4.46638007219">
        <ele>0</ele>
        <time>2019-04-09T21:23:32Z</time>
      </trkpt>
      <trkpt lat="51.230662135322" lon="4.466118389272">
        <ele>0</ele>
        <time>2019-04-09T21:23:45Z</time>
      </trkpt>
      <trkpt lat="51.23072432902" lon="4.465402826469">
        <ele>0</ele>
        <time>2019-04-09T21:24:23Z</time>
      </trkpt>
      <trkpt lat="51.230714103102" lon="4.465122703371">
        <ele>0</ele>
        <time>2019-04-09T21:24:43Z</time>
      </trkpt>
      <trkpt lat="51.230694070361" lon="4.464980713985">
        <ele>2.4</ele>
        <time>2019-04-09T21:24:57Z</time>
      </trkpt>
      <trkpt lat="51.230684263538" lon="4.464946012919">
        <ele>3</ele>
        <time>2019-04-09T21:24:59Z</time>
      </trkpt>
      <trkpt lat="51.230637911631" lon="4.464762700766">
        <ele>6.4</ele>
        <time>2019-04-09T21:25:10Z</time>
      </trkpt>
      <trkpt lat="51.230482846481" lon="4.464252243056">
        <ele>1.4</ele>
        <time>2019-04-09T21:25:38Z</time>
      </trkpt>
      <trkpt lat="51.230433309452" lon="4.464024842109">
        <ele>0</ele>
        <time>2019-04-09T21:25:48Z</time>
      </trkpt>
      <trkpt lat="51.230436326936" lon="4.463976227089">
        <ele>0</ele>
        <time>2019-04-09T21:25:50Z</time>
      </trkpt>
      <trkpt lat="51.230374719971" lon="4.463816216618">
        <ele>0</ele>
        <time>2019-04-09T21:25:59Z</time>
      </trkpt>
      <trkpt lat="51.229967862545" lon="4.464094160422">
        <ele>0</ele>
        <time>2019-04-09T21:26:24Z</time>
      </trkpt>
      <trkpt lat="51.229623701731" lon="4.464155851206">
        <ele>0</ele>
        <time>2019-04-09T21:26:45Z</time>
      </trkpt>
      <trkpt lat="51.229339220045" lon="4.464131459877">
        <ele>0</ele>
        <time>2019-04-09T21:27:13Z</time>
      </trkpt>
      <trkpt lat="51.229213575364" lon="4.464104721616">
        <ele>0</ele>
        <time>2019-04-09T21:27:22Z</time>
      </trkpt>
      <trkpt lat="51.229205444921" lon="4.4638814278">
        <ele>1.6</ele>
        <time>2019-04-09T21:27:36Z</time>
      </trkpt>
      <trkpt lat="51.229179041936" lon="4.463154297975">
        <ele>0</ele>
        <time>2019-04-09T21:28:09Z</time>
      </trkpt>
      <trkpt lat="51.22913176802" lon="4.462638056754">
        <ele>0.8</ele>
        <time>2019-04-09T21:28:31Z</time>
      </trkpt>
      <trkpt lat="51.229112405831" lon="4.461917883906">
        <ele>2.8</ele>
        <time>2019-04-09T21:29:03Z</time>
      </trkpt>
      <trkpt lat="51.229105281216" lon="4.461890978007">
        <ele>2.8</ele>
        <time>2019-04-09T21:29:05Z</time>
      </trkpt>
      <trkpt lat="51.228960022889" lon="4.46162585851">
        <ele>8.6</ele>
        <time>2019-04-09T21:29:23Z</time>
      </trkpt>
      <trkpt lat="51.22851402199" lon="4.46150348277">
        <ele>20.2</ele>
        <time>2019-04-09T21:29:55Z</time>
      </trkpt>
      <trkpt lat="51.228291985459" lon="4.461487724798">
        <ele>47.2</ele>
        <time>2019-04-09T21:30:14Z</time>
      </trkpt>
      <trkpt lat="51.228017897329" lon="4.461117747732">
        <ele>48.8</ele>
        <time>2019-04-09T21:30:39Z</time>
      </trkpt>
      <trkpt lat="51.228087299461" lon="4.46047670002">
        <ele>26</ele>
        <time>2019-04-09T21:30:53Z</time>
      </trkpt>
      <trkpt lat="51.228307072879" lon="4.459854260126">
        <ele>0</ele>
        <time>2019-04-09T21:31:23Z</time>
      </trkpt>
      <trkpt lat="51.228516620379" lon="4.459267862402">
        <ele>0</ele>
        <time>2019-04-09T21:31:55Z</time>
      </trkpt>
      <trkpt lat="51.228501030045" lon="4.459213463871">
        <ele>0</ele>
        <time>2019-04-09T21:31:57Z</time>
      </trkpt>
      <trkpt lat="51.22847043611" lon="4.458742401091">
        <ele>0</ele>
        <time>2019-04-09T21:32:21Z</time>
      </trkpt>
      <trkpt lat="51.22848384715" lon="4.45845498574">
        <ele>0</ele>
        <time>2019-04-09T21:32:38Z</time>
      </trkpt>
      <trkpt lat="51.228515195456" lon="4.458314924191">
        <ele>0</ele>
        <time>2019-04-09T21:32:47Z</time>
      </trkpt>
      <trkpt lat="51.228624746889" lon="4.458155165177">
        <ele>0</ele>
        <time>2019-04-09T21:33:03Z</time>
      </trkpt>
      <trkpt lat="51.228977876336" lon="4.458109232365">
        <ele>3.8</ele>
        <time>2019-04-09T21:33:34Z</time>
      </trkpt>
      <trkpt lat="51.229299992753" lon="4.458013762524">
        <ele>2.2</ele>
        <time>2019-04-09T21:34:00Z</time>
      </trkpt>
      <trkpt lat="51.229584977353" lon="4.457976043974">
        <ele>8</ele>
        <time>2019-04-09T21:34:24Z</time>
      </trkpt>
      <trkpt lat="51.229730654775" lon="4.458004542434">
        <ele>1.6</ele>
        <time>2019-04-09T21:34:53Z</time>
      </trkpt>
      <trkpt lat="51.22969167894" lon="4.457989455014">
        <ele>0.2</ele>
        <time>2019-04-09T21:35:04Z</time>
      </trkpt>
    </trkseg>
  </trk>
</gpx>